• Join FlightAware (Why Join?)
  • Login
  • US Flag 
12:17PM EDT


 

Airport Tracker/Info


-or-


 

Live Flight TrackerFlight Track Log ✈ UAL5914 ✈ 02-May-2013 ✈ KDEN - KCID

Flight Track Log - Related Links

Times and Time Zones

All times are in EDT time to prevent confusion due to time zone crossing. See the UAL5914 flight status page for this flight to view local times or setup timezone preferences in your user account.

Time Position Orientation Groundspeed Altitude Reporting Facility
EDT Latitude Longitude Course Direction KTS MPH feet Rate Location/Type
12:14PM 39.9167 -104.6833 75° East 179 206 6,900  Level Denver TRACON
12:15PM 39.9333 -104.6333 66° East 225 259 8,200 1,680 Climbing Denver TRACON
12:16PM 39.9433 -104.5678 79° East 248 285 9,500 1,140 Climbing Denver Center
12:17PM 39.9500 -104.4658 85° East 277 319 10,100 240 Climbing Denver Center
12:18PM 39.9589 -104.3417 85° East 316 364 10,100 480 Level Denver Center
12:19PM 39.9675 -104.2203 85° East 333 383 11,100 1,140 Climbing Denver Center
12:20PM 39.9741 -103.9461 75° East  Level FlightAware Approximate
12:20PM 39.9794 -104.0792 84° East 361 415 12,500  Level Denver Center
12:21PM 39.9942 -103.9500 81° East 361 415 14,500 2,220 Climbing Denver Center
12:22PM 40.0131 -103.8156 80° East 351 404 17,100 1,560 Climbing Denver Center
12:23PM 40.0306 -103.7053 78° East 339 390 17,800 840 Climbing Denver Center
12:24PM 40.0553 -103.5592 77° East 371 427 18,900 1,200 Climbing Denver Center
12:25PM 40.0769 -103.4269 78° East 388 447 20,300 1,560 Climbing Denver Center
12:26PM 40.1008 -103.2756 78° East 383 441 22,200 1,500 Climbing Denver Center
12:27PM 40.1217 -103.1458 78° East 381 438 23,800 1,560 Climbing Denver Center
12:29PM 40.1489 -102.9747 78° East 376 433 25,800 1,680 Climbing Denver Center
12:30PM 40.1733 -102.8228 78° East 383 441 27,300 1,260 Climbing Denver Center
12:31PM 40.1936 -102.6919 78° East 384 442 28,500 780 Climbing Denver Center
12:32PM 40.2097 -102.5819 79° East 386 444 29,000 480 Climbing Denver Center
12:33PM 40.2386 -102.3950 78° East 409 471 29,500 660 Climbing Denver Center
12:34PM 40.2608 -102.2517 78° East 419 482 30,400 960 Climbing Denver Center
12:35PM 40.2850 -102.0842 79° East 419 482 31,500 960 Climbing Denver Center
12:36PM 40.3069 -101.9392 79° East 424 488 32,500 960 Climbing Denver Center
12:37PM 40.3325 -101.7697 79° East 426 490 33,600 960 Climbing Denver Center
12:38PM 40.3539 -101.6228 79° East 428 493 34,500 660 Climbing Denver Center
12:39PM 40.3778 -101.4517 80° East 429 494 35,000 240 Climbing Denver Center
12:40PM 40.4000 -101.2978 79° East 448 516 35,000  Level Denver Center
12:41PM 40.4269 -101.1106 79° East 468 539 35,000  Level Denver Center
12:42PM 40.4503 -100.9464 79° East 479 551 35,000  Level Denver Center
12:43PM 40.4758 -100.7522 80° East 487 560 35,000  Level Denver Center
12:44PM 40.4975 -100.5875 80° East 485 558 35,000  Level Denver Center
12:45PM 40.5214 -100.3944 81° East 483 556 35,000  Level Denver Center
12:46PM 40.5419 -100.2303 81° East 480 552 35,000  Level Denver Center
12:47PM 40.5664 -100.0386 80° East 479 551 35,000  Level Denver Center
12:48PM 40.5856 -99.8736 81° East 480 552 35,000  Level Denver Center
12:49PM 40.6081 -99.6967 80° East 478 550 35,000  Level Denver Center
12:50PM 40.6283 -99.5236 81° East 480 552 35,000  Level Denver Center
12:51PM 40.6533 -99.3164 81° East 480 552 35,000  Level Denver Center
12:52PM 40.6725 -99.1433 82° East 480 552 35,000  Level Denver Center
12:53PM 40.6889 -99.0050 81° East 482 555 35,000  Level Minneapolis Center
12:54PM 40.7128 -98.7964 81° East 484 557 35,000  Level Minneapolis Center
12:55PM 40.7317 -98.6214 82° East 485 558 35,000  Level Minneapolis Center
12:56PM 40.7506 -98.4478 82° East 484 557 35,000  Level Minneapolis Center
12:57PM 40.7694 -98.2728 82° East 484 557 35,000  Level Minneapolis Center
12:58PM 40.7878 -98.0981 82° East 485 558 35,000  Level Minneapolis Center
12:59PM 40.8061 -97.9239 82° East 482 555 35,000  Level Minneapolis Center
01:00PM 40.8289 -97.7147 82° East 481 554 35,000  Level Minneapolis Center
01:02PM 40.8450 -97.5392 83° East 482 555 35,000  Level Minneapolis Center
01:03PM 40.8644 -97.3528 82° East 480 552 35,000  Level Minneapolis Center
01:04PM 40.8806 -97.1778 83° East 480 552 35,000  Level Minneapolis Center
01:05PM 40.8989 -97.0044 82° East 478 550 35,000  Level Minneapolis Center
01:06PM 40.9144 -96.8294 83° East 480 552 35,000  Level Minneapolis Center
01:07PM 40.9403 -96.6564 79° East 480 552 35,000  Level Minneapolis Center
01:08PM 40.9861 -96.4481 74° East 492 566 35,000  Level Minneapolis Center
01:09PM 41.0231 -96.2753 74° East 492 566 35,000  Level Minneapolis Center
01:10PM 41.0592 -96.1039 74° East 490 564 35,000  Level Minneapolis Center
01:11PM 41.0944 -95.9333 75° East 488 562 35,000  Level Minneapolis Center
01:12PM 41.1292 -95.7636 75° East 488 562 35,000  Level Minneapolis Center
01:13PM 41.1714 -95.5558 75° East 488 562 35,000  Level Minneapolis Center
01:14PM 41.2075 -95.3822 74° East 488 562 35,000  Level Minneapolis Center
01:15PM 41.2425 -95.2097 75° East 488 562 35,000  Level Minneapolis Center
01:16PM 41.2764 -95.0381 75° East 484 557 35,000 -480 Level Minneapolis Center
01:17PM 41.3253 -94.8708 69° East 484 557 34,100 -1,020 Descending Minneapolis Center
01:18PM 41.3831 -94.7067 65° Northeast 487 560 32,900 -1,500 Descending Minneapolis Center
01:19PM 41.4508 -94.5161 65° Northeast 480 552 31,000 -660 Descending Minneapolis Center
01:21PM 41.5094 -94.2133 75° East 467 537 31,000  Level Chicago Center
01:22PM 41.5400 -94.0133 78° East 467 537 31,000  Level Minneapolis Center
01:23PM 41.5689 -93.8436 77° East 468 539 31,000  Level Minneapolis Center
01:24PM 41.5972 -93.6708 78° East 471 542 31,000  Level Minneapolis Center
01:25PM 41.6314 -93.4644 77° East 475 547 31,000 -660 Level Minneapolis Center
01:26PM 41.6597 -93.2928 77° East 475 547 29,700 -1,440 Descending Minneapolis Center
01:27PM 41.6853 -93.1283 78° East 462 532 28,100 -1,620 Descending Minneapolis Center
01:28PM 41.7103 -92.9644 78° East 454 522 26,400 -2,040 Descending Minneapolis Center
01:29PM 41.7367 -92.7997 78° East 451 519 24,000 -2,340 Descending Minneapolis Center
01:30PM 41.7611 -92.6389 78° East 449 517 21,600 -2,520 Descending Minneapolis Center
01:31PM 41.7833 -92.4772 80° East 446 513 19,200 -2,340 Descending Chicago Center
01:32PM 41.7883 -92.3228 87° East 428 493 17,200 -2,220 Descending Chicago Center
01:33PM 41.7936 -92.1703 87° East 417 480 14,700 -2,280 Descending Chicago Center
01:34PM 41.7983 -92.0244 87° East 402 463 12,600 -1,980 Descending Chicago Center
01:35PM 41.8097 -91.8739 84° East 347 399 10,700 -1,680 Descending Chicago Center
01:36PM 41.8167 -91.7619 85° East 314 361 9,200 -1,020 Descending Chicago Center
01:38PM 41.8000 -91.6639 103° East 280 322 8,700 -780 Descending Chicago Center
01:39PM 41.7828 -91.5706 104° East 265 305 7,600 -1,620 Descending Chicago Center
01:40PM 41.7586 -91.4600 106° East 261 300 5,400 -1,680 Descending Chicago Center
01:41PM 41.7867 -91.3883 62° Northeast 270 311 4,100 -720 Descending Chicago Center
01:42PM 41.8558 -91.3908 358° North 258 297 4,000 -540 Descending Chicago Center
01:43PM 41.8997 -91.4489 315° West 261 300 3,000 -660 Descending Chicago Center
01:44PM 41.8828 -91.5319 255° West 253 291 2,700 -360 Descending Chicago Center
01:45PM 41.8842 -91.6078 271° West 225 259 2,300 -480 Descending Chicago Center
01:46PM 41.8861 -91.6847 272° West 210 242 1,800 -540 Descending Chicago Center